sensor_id;sensor_type;location;lat;lon;timestamp;pressure;altitude;pressure_sealevel;temperature;humidity
37304;BME280;23188;51.188;16.374;2022-09-24T00:03:03;100225.68;;;9.35;100.00
37304;BME280;23188;51.188;16.374;2022-09-24T00:07:04;100229.27;;;9.11;100.00
37304;BME280;23188;51.188;16.374;2022-09-24T00:11:06;100224.30;;;9.00;100.00
37304;BME280;23188;51.188;16.374;2022-09-24T00:15:08;100218.62;;;8.99;100.00
37304;BME280;23188;51.188;16.374;2022-09-24T00:19:11;100218.60;;;8.94;100.00
37304;BME280;23188;51.188;16.374;2022-09-24T00:23:13;100213.16;;;8.78;100.00
37304;BME280;23188;51.188;16.374;2022-09-24T00:27:15;100210.37;;;8.80;100.00
37304;BME280;23188;51.188;16.374;2022-09-24T00:31:16;100202.05;;;8.79;100.00
37304;BME280;23188;51.188;16.374;2022-09-24T00:35:17;100201.54;;;8.68;100.00
37304;BME280;23188;51.188;16.374;2022-09-24T00:39:18;100202.12;;;8.60;100.00
37304;BME280;23188;51.188;16.374;2022-09-24T00:43:28;100199.57;;;8.53;100.00
37304;BME280;23188;51.188;16.374;2022-09-24T00:47:38;100203.80;;;8.61;100.00
37304;BME280;23188;51.188;16.374;2022-09-24T00:51:39;100195.52;;;8.66;100.00
37304;BME280;23188;51.188;16.374;2022-09-24T00:55:43;100194.78;;;8.64;100.00
37304;BME280;23188;51.188;16.374;2022-09-24T00:59:46;100193.95;;;8.69;100.00
37304;BME280;23188;51.188;16.374;2022-09-24T01:03:48;100190.72;;;8.77;100.00
37304;BME280;23188;51.188;16.374;2022-09-24T01:07:51;100187.59;;;8.83;100.00
37304;BME280;23188;51.188;16.374;2022-09-24T01:12:13;100188.55;;;8.70;100.00
37304;BME280;23188;51.188;16.374;2022-09-24T01:21:49;100185.14;;;8.63;100.00
37304;BME280;23188;51.188;16.374;2022-09-24T01:25:40;100181.02;;;8.53;100.00
37304;BME280;23188;51.188;16.374;2022-09-24T01:34:07;100174.62;;;8.50;100.00
37304;BME280;23188;51.188;16.374;2022-09-24T01:38:15;100171.81;;;8.46;100.00
37304;BME280;23188;51.188;16.374;2022-09-24T01:42:20;100170.55;;;8.38;100.00
37304;BME280;23188;51.188;16.374;2022-09-24T01:46:23;100165.39;;;8.37;100.00
37304;BME280;23188;51.188;16.374;2022-09-24T01:50:25;100161.78;;;8.38;100.00
37304;BME280;23188;51.188;16.374;2022-09-24T01:54:41;100154.78;;;8.42;100.00
37304;BME280;23188;51.188;16.374;2022-09-24T02:03:06;100149.61;;;8.77;100.00
37304;BME280;23188;51.188;16.374;2022-09-24T02:07:23;100154.21;;;8.80;100.00
37304;BME280;23188;51.188;16.374;2022-09-24T02:11:25;100147.56;;;8.75;100.00
37304;BME280;23188;51.188;16.374;2022-09-24T02:15:33;100147.03;;;8.58;100.00
37304;BME280;23188;51.188;16.374;2022-09-24T02:19:39;100149.22;;;8.59;100.00
37304;BME280;23188;51.188;16.374;2022-09-24T02:23:48;100138.75;;;8.74;100.00
37304;BME280;23188;51.188;16.374;2022-09-24T02:27:51;100140.72;;;8.89;100.00
37304;BME280;23188;51.188;16.374;2022-09-24T02:31:54;100136.38;;;8.88;100.00
37304;BME280;23188;51.188;16.374;2022-09-24T02:35:57;100141.31;;;8.81;100.00
37304;BME280;23188;51.188;16.374;2022-09-24T02:39:59;100137.31;;;8.76;100.00
37304;BME280;23188;51.188;16.374;2022-09-24T02:44:01;100133.45;;;8.68;100.00
37304;BME280;23188;51.188;16.374;2022-09-24T02:48:02;100136.57;;;8.68;100.00
37304;BME280;23188;51.188;16.374;2022-09-24T02:52:04;100138.77;;;8.80;100.00
37304;BME280;23188;51.188;16.374;2022-09-24T02:56:06;100131.56;;;8.93;100.00
37304;BME280;23188;51.188;16.374;2022-09-24T03:00:08;100125.17;;;9.13;100.00
37304;BME280;23188;51.188;16.374;2022-09-24T03:04:10;100123.11;;;9.28;100.00
37304;BME280;23188;51.188;16.374;2022-09-24T03:08:12;100117.56;;;9.37;100.00
37304;BME280;23188;51.188;16.374;2022-09-24T03:12:13;100117.81;;;9.45;100.00
37304;BME280;23188;51.188;16.374;2022-09-24T03:16:16;100109.70;;;9.64;100.00
37304;BME280;23188;51.188;16.374;2022-09-24T03:20:17;100112.80;;;9.75;99.88
37304;BME280;23188;51.188;16.374;2022-09-24T03:24:18;100105.81;;;9.74;98.11
37304;BME280;23188;51.188;16.374;2022-09-24T03:28:20;100097.14;;;9.60;98.66
37304;BME280;23188;51.188;16.374;2022-09-24T03:32:22;100103.41;;;9.65;99.19
37304;BME280;23188;51.188;16.374;2022-09-24T03:36:24;100095.30;;;9.72;98.74
37304;BME280;23188;51.188;16.374;2022-09-24T03:40:26;100087.78;;;9.77;98.32
37304;BME280;23188;51.188;16.374;2022-09-24T03:44:27;100087.94;;;9.70;98.87
37304;BME280;23188;51.188;16.374;2022-09-24T03:48:28;100087.64;;;9.46;100.00
37304;BME280;23188;51.188;16.374;2022-09-24T03:52:30;100087.53;;;9.19;100.00
37304;BME280;23188;51.188;16.374;2022-09-24T03:56:31;100089.70;;;9.03;100.00
37304;BME280;23188;51.188;16.374;2022-09-24T04:00:32;100091.87;;;8.97;100.00
37304;BME280;23188;51.188;16.374;2022-09-24T04:04:33;100086.70;;;9.07;100.00
37304;BME280;23188;51.188;16.374;2022-09-24T04:08:34;100088.52;;;9.07;100.00
37304;BME280;23188;51.188;16.374;2022-09-24T04:12:36;100091.63;;;9.00;100.00
37304;BME280;23188;51.188;16.374;2022-09-24T04:16:37;100082.70;;;9.02;100.00
37304;BME280;23188;51.188;16.374;2022-09-24T04:20:39;100079.84;;;9.05;100.00
37304;BME280;23188;51.188;16.374;2022-09-24T04:24:41;100080.92;;;9.08;100.00
37304;BME280;23188;51.188;16.374;2022-09-24T04:28:42;100076.55;;;9.24;100.00
37304;BME280;23188;51.188;16.374;2022-09-24T04:32:43;100075.69;;;9.46;100.00
37304;BME280;23188;51.188;16.374;2022-09-24T04:36:45;100067.91;;;9.66;100.00
37304;BME280;23188;51.188;16.374;2022-09-24T04:40:46;100068.47;;;9.81;100.00
37304;BME280;23188;51.188;16.374;2022-09-24T04:44:48;100065.63;;;9.94;100.00
37304;BME280;23188;51.188;16.374;2022-09-24T04:48:49;100066.09;;;9.99;100.00
37304;BME280;23188;51.188;16.374;2022-09-24T04:52:50;100061.48;;;10.01;99.88
37304;BME280;23188;51.188;16.374;2022-09-24T04:56:52;100069.72;;;9.98;99.10
37304;BME280;23188;51.188;16.374;2022-09-24T05:00:54;100065.26;;;9.98;99.25
37304;BME280;23188;51.188;16.374;2022-09-24T05:04:55;100061.39;;;9.97;99.01
37304;BME280;23188;51.188;16.374;2022-09-24T05:08:57;100060.41;;;9.98;98.76
37304;BME280;23188;51.188;16.374;2022-09-24T05:12:58;100060.64;;;10.06;99.15
37304;BME280;23188;51.188;16.374;2022-09-24T05:17:00;100054.80;;;10.12;98.61
37304;BME280;23188;51.188;16.374;2022-09-24T05:21:02;100052.14;;;10.12;97.95
37304;BME280;23188;51.188;16.374;2022-09-24T05:25:04;100056.59;;;10.12;97.50
37304;BME280;23188;51.188;16.374;2022-09-24T05:29:06;100050.81;;;10.12;97.38
37304;BME280;23188;51.188;16.374;2022-09-24T05:33:07;100050.44;;;10.17;97.58
37304;BME280;23188;51.188;16.374;2022-09-24T05:37:10;100047.63;;;10.19;97.25
37304;BME280;23188;51.188;16.374;2022-09-24T05:41:12;100053.66;;;10.21;97.29
37304;BME280;23188;51.188;16.374;2022-09-24T05:45:14;100052.56;;;10.23;98.67
37304;BME280;23188;51.188;16.374;2022-09-24T05:49:18;100058.69;;;10.29;98.45
37304;BME280;23188;51.188;16.374;2022-09-24T05:53:20;100059.37;;;10.37;99.19
37304;BME280;23188;51.188;16.374;2022-09-24T05:57:25;100061.62;;;10.53;98.79
37304;BME280;23188;51.188;16.374;2022-09-24T06:01:27;100063.15;;;10.35;99.87
37304;BME280;23188;51.188;16.374;2022-09-24T06:05:30;100064.36;;;10.31;100.00
37304;BME280;23188;51.188;16.374;2022-09-24T06:09:31;100065.28;;;10.47;100.00
37304;BME280;23188;51.188;16.374;2022-09-24T06:13:33;100065.87;;;10.66;100.00
37304;BME280;23188;51.188;16.374;2022-09-24T06:17:37;100058.69;;;10.88;100.00
37304;BME280;23188;51.188;16.374;2022-09-24T06:21:38;100063.30;;;11.17;98.93
37304;BME280;23188;51.188;16.374;2022-09-24T06:25:40;100062.22;;;11.39;97.65
37304;BME280;23188;51.188;16.374;2022-09-24T06:29:41;100066.53;;;11.55;97.02
37304;BME280;23188;51.188;16.374;2022-09-24T06:33:42;100067.81;;;11.71;96.60
37304;BME280;23188;51.188;16.374;2022-09-24T06:37:43;100064.69;;;11.91;96.12
37304;BME280;23188;51.188;16.374;2022-09-24T06:41:45;100058.59;;;12.05;95.23
37304;BME280;23188;51.188;16.374;2022-09-24T06:45:46;100060.27;;;12.16;94.94
37304;BME280;23188;51.188;16.374;2022-09-24T06:49:48;100070.94;;;12.16;94.43
37304;BME280;23188;51.188;16.374;2022-09-24T06:53:50;100068.72;;;12.11;94.79
37304;BME280;23188;51.188;16.374;2022-09-24T06:58:04;100072.77;;;12.25;95.04
37304;BME280;23188;51.188;16.374;2022-09-24T07:02:10;100074.66;;;12.38;95.74
37304;BME280;23188;51.188;16.374;2022-09-24T07:06:11;100075.47;;;12.49;96.11
37304;BME280;23188;51.188;16.374;2022-09-24T07:10:13;100081.72;;;12.53;96.41
37304;BME280;23188;51.188;16.374;2022-09-24T07:14:15;100088.14;;;12.61;97.01
37304;BME280;23188;51.188;16.374;2022-09-24T07:18:17;100087.08;;;12.67;98.14
37304;BME280;23188;51.188;16.374;2022-09-24T07:22:20;100092.13;;;12.70;98.00
37304;BME280;23188;51.188;16.374;2022-09-24T07:26:21;100093.92;;;13.04;99.00
37304;BME280;23188;51.188;16.374;2022-09-24T07:30:23;100089.69;;;13.39;97.01
37304;BME280;23188;51.188;16.374;2022-09-24T07:34:24;100097.59;;;13.73;94.66
37304;BME280;23188;51.188;16.374;2022-09-24T07:38:25;100100.62;;;13.92;92.53
37304;BME280;23188;51.188;16.374;2022-09-24T07:42:27;100102.88;;;14.00;91.36
37304;BME280;23188;51.188;16.374;2022-09-24T07:46:28;100099.87;;;14.18;90.83
37304;BME280;23188;51.188;16.374;2022-09-24T07:50:32;100092.16;;;14.37;87.95
37304;BME280;23188;51.188;16.374;2022-09-24T07:54:35;100094.27;;;14.51;88.10
37304;BME280;23188;51.188;16.374;2022-09-24T07:58:37;100089.03;;;14.68;87.17
37304;BME280;23188;51.188;16.374;2022-09-24T08:02:38;100087.63;;;14.78;86.65
37304;BME280;23188;51.188;16.374;2022-09-24T08:06:40;100094.31;;;14.78;85.34
37304;BME280;23188;51.188;16.374;2022-09-24T08:10:41;100091.67;;;14.86;86.51
37304;BME280;23188;51.188;16.374;2022-09-24T08:14:43;100088.55;;;14.99;85.32
37304;BME280;23188;51.188;16.374;2022-09-24T08:18:44;100089.17;;;15.19;85.85
37304;BME280;23188;51.188;16.374;2022-09-24T08:22:46;100072.65;;;15.40;86.21
37304;BME280;23188;51.188;16.374;2022-09-24T08:26:47;100070.20;;;15.60;85.09
37304;BME280;23188;51.188;16.374;2022-09-24T08:30:48;100069.56;;;15.78;83.62
37304;BME280;23188;51.188;16.374;2022-09-24T08:34:49;100068.80;;;16.03;83.33
37304;BME280;23188;51.188;16.374;2022-09-24T08:38:52;100068.94;;;16.30;81.49
37304;BME280;23188;51.188;16.374;2022-09-24T08:47:17;100075.61;;;16.72;79.82
37304;BME280;23188;51.188;16.374;2022-09-24T08:51:37;100071.19;;;16.87;79.95
37304;BME280;23188;51.188;16.374;2022-09-24T08:55:43;100074.36;;;16.95;78.74
37304;BME280;23188;51.188;16.374;2022-09-24T08:59:50;100068.48;;;17.04;77.98
37304;BME280;23188;51.188;16.374;2022-09-24T09:04:11;100063.78;;;17.10;76.91
37304;BME280;23188;51.188;16.374;2022-09-24T09:08:40;100062.03;;;17.21;77.28
37304;BME280;23188;51.188;16.374;2022-09-24T09:12:47;100060.31;;;17.28;76.39
37304;BME280;23188;51.188;16.374;2022-09-24T09:16:54;100053.40;;;17.34;76.02
37304;BME280;23188;51.188;16.374;2022-09-24T09:21:02;100053.86;;;17.42;75.32
37304;BME280;23188;51.188;16.374;2022-09-24T09:29:21;100057.59;;;17.37;76.09
37304;BME280;23188;51.188;16.374;2022-09-24T09:42:31;100054.82;;;17.77;76.12
37304;BME280;23188;51.188;16.374;2022-09-24T09:46:36;100052.58;;;17.89;74.39
37304;BME280;23188;51.188;16.374;2022-09-24T09:50:47;100055.16;;;18.01;73.83
37304;BME280;23188;51.188;16.374;2022-09-24T09:54:49;100055.55;;;18.17;72.50
37304;BME280;23188;51.188;16.374;2022-09-24T09:59:27;100057.33;;;18.29;72.07
37304;BME280;23188;51.188;16.374;2022-09-24T10:03:28;100056.65;;;18.46;72.28
37304;BME280;23188;51.188;16.374;2022-09-24T10:07:31;100050.63;;;18.59;71.59
37304;BME280;23188;51.188;16.374;2022-09-24T10:11:36;100063.12;;;18.56;71.76
37304;BME280;23188;51.188;16.374;2022-09-24T10:15:50;100059.83;;;18.65;70.32
37304;BME280;23188;51.188;16.374;2022-09-24T10:19:52;100054.81;;;18.77;70.01
37304;BME280;23188;51.188;16.374;2022-09-24T10:23:59;100046.03;;;18.79;66.83
37304;BME280;23188;51.188;16.374;2022-09-24T10:28:07;100058.80;;;18.96;67.17
37304;BME280;23188;51.188;16.374;2022-09-24T10:32:27;100056.41;;;19.16;67.36
37304;BME280;23188;51.188;16.374;2022-09-24T10:36:30;100049.95;;;19.32;66.07
37304;BME280;23188;51.188;16.374;2022-09-24T10:40:38;100049.66;;;19.42;66.02
37304;BME280;23188;51.188;16.374;2022-09-24T10:44:40;100055.17;;;19.34;64.17
37304;BME280;23188;51.188;16.374;2022-09-24T10:48:53;100049.97;;;19.43;64.95
37304;BME280;23188;51.188;16.374;2022-09-24T10:53:11;100046.39;;;19.47;63.49
37304;BME280;23188;51.188;16.374;2022-09-24T10:57:16;100047.66;;;19.66;64.77
37304;BME280;23188;51.188;16.374;2022-09-24T11:06:03;100046.98;;;19.64;64.39
37304;BME280;23188;51.188;16.374;2022-09-24T11:23:43;100040.55;;;19.65;63.16
37304;BME280;23188;51.188;16.374;2022-09-24T11:36:52;100037.25;;;20.17;59.95
37304;BME280;23188;51.188;16.374;2022-09-24T11:54:34;100021.31;;;20.11;55.61
37304;BME280;23188;51.188;16.374;2022-09-24T11:58:49;100026.69;;;20.22;55.66
37304;BME280;23188;51.188;16.374;2022-09-24T12:07:41;100023.44;;;20.45;55.62
37304;BME280;23188;51.188;16.374;2022-09-24T12:12:09;100010.24;;;20.46;55.92
37304;BME280;23188;51.188;16.374;2022-09-24T12:16:29;99995.70;;;20.47;57.31
37304;BME280;23188;51.188;16.374;2022-09-24T12:20:35;99979.68;;;20.45;55.15
37304;BME280;23188;51.188;16.374;2022-09-24T12:24:54;99984.25;;;20.27;55.20
37304;BME280;23188;51.188;16.374;2022-09-24T12:33:56;99984.62;;;20.24;55.53
37304;BME280;23188;51.188;16.374;2022-09-24T12:38:20;99983.34;;;20.20;54.48
37304;BME280;23188;51.188;16.374;2022-09-24T12:42:27;99988.59;;;20.10;53.26
37304;BME280;23188;51.188;16.374;2022-09-24T12:50:58;99980.34;;;20.36;53.94
37304;BME280;23188;51.188;16.374;2022-09-24T12:55:02;99974.09;;;20.47;52.66
37304;BME280;23188;51.188;16.374;2022-09-24T12:59:21;99975.36;;;20.51;52.82
37304;BME280;23188;51.188;16.374;2022-09-24T13:03:34;99972.30;;;20.43;56.06
37304;BME280;23188;51.188;16.374;2022-09-24T13:07:41;99965.86;;;20.44;52.43
37304;BME280;23188;51.188;16.374;2022-09-24T13:11:44;99967.08;;;20.41;52.68
37304;BME280;23188;51.188;16.374;2022-09-24T13:15:47;99964.63;;;20.29;52.51
37304;BME280;23188;51.188;16.374;2022-09-24T13:20:02;99963.59;;;20.30;52.89
37304;BME280;23188;51.188;16.374;2022-09-24T13:24:11;99957.30;;;20.40;52.92
37304;BME280;23188;51.188;16.374;2022-09-24T13:28:22;99953.89;;;20.43;52.27
37304;BME280;23188;51.188;16.374;2022-09-24T13:32:27;99958.26;;;20.44;52.81
37304;BME280;23188;51.188;16.374;2022-09-24T13:45:38;99952.14;;;20.10;51.56
37304;BME280;23188;51.188;16.374;2022-09-24T13:49:44;99960.90;;;19.91;52.68
37304;BME280;23188;51.188;16.374;2022-09-24T13:53:51;99963.93;;;19.81;53.10
37304;BME280;23188;51.188;16.374;2022-09-24T13:57:59;99961.34;;;19.83;53.02
37304;BME280;23188;51.188;16.374;2022-09-24T14:02:01;99967.98;;;19.70;53.21
37304;BME280;23188;51.188;16.374;2022-09-24T14:06:14;99954.68;;;19.68;53.12
37304;BME280;23188;51.188;16.374;2022-09-24T14:10:18;99960.32;;;19.74;55.79
37304;BME280;23188;51.188;16.374;2022-09-24T14:14:21;99959.34;;;19.81;53.35
37304;BME280;23188;51.188;16.374;2022-09-24T14:18:28;99951.31;;;19.88;54.98
37304;BME280;23188;51.188;16.374;2022-09-24T14:22:35;99950.69;;;19.97;55.11
37304;BME280;23188;51.188;16.374;2022-09-24T14:26:41;99947.27;;;19.99;52.90
37304;BME280;23188;51.188;16.374;2022-09-24T14:30:50;99948.05;;;20.04;53.61
37304;BME280;23188;51.188;16.374;2022-09-24T14:34:56;99948.36;;;20.05;53.40
37304;BME280;23188;51.188;16.374;2022-09-24T14:39:01;99933.64;;;20.07;53.32
37304;BME280;23188;51.188;16.374;2022-09-24T14:43:04;99932.08;;;20.09;53.16
37304;BME280;23188;51.188;16.374;2022-09-24T14:47:18;99931.18;;;20.12;53.84
37304;BME280;23188;51.188;16.374;2022-09-24T14:51:29;99932.31;;;20.14;52.70
37304;BME280;23188;51.188;16.374;2022-09-24T14:55:39;99933.08;;;20.19;52.89
37304;BME280;23188;51.188;16.374;2022-09-24T14:59:42;99932.58;;;20.19;52.09
37304;BME280;23188;51.188;16.374;2022-09-24T15:07:51;99935.46;;;20.18;53.64
37304;BME280;23188;51.188;16.374;2022-09-24T15:12:16;99924.11;;;20.11;51.61
37304;BME280;23188;51.188;16.374;2022-09-24T15:16:32;99920.14;;;20.07;51.15
37304;BME280;23188;51.188;16.374;2022-09-24T15:20:34;99925.91;;;20.04;53.44
37304;BME280;23188;51.188;16.374;2022-09-24T15:24:35;99925.86;;;20.08;54.02
37304;BME280;23188;51.188;16.374;2022-09-24T15:28:36;99922.13;;;20.09;52.82
37304;BME280;23188;51.188;16.374;2022-09-24T15:32:37;99919.97;;;19.98;53.05
37304;BME280;23188;51.188;16.374;2022-09-24T15:36:38;99921.26;;;19.91;55.00
37304;BME280;23188;51.188;16.374;2022-09-24T15:40:40;99924.22;;;19.86;54.41
37304;BME280;23188;51.188;16.374;2022-09-24T15:44:43;99933.00;;;19.83;54.60
37304;BME280;23188;51.188;16.374;2022-09-24T15:48:45;99936.73;;;19.82;54.39
37304;BME280;23188;51.188;16.374;2022-09-24T15:52:54;99936.48;;;19.77;54.59
37304;BME280;23188;51.188;16.374;2022-09-24T15:56:58;99933.41;;;19.69;55.34
37304;BME280;23188;51.188;16.374;2022-09-24T16:01:00;99933.75;;;19.60;55.92
37304;BME280;23188;51.188;16.374;2022-09-24T16:05:08;99928.25;;;19.46;57.07
37304;BME280;23188;51.188;16.374;2022-09-24T16:09:11;99921.37;;;19.33;59.77
37304;BME280;23188;51.188;16.374;2022-09-24T16:13:14;99924.95;;;19.18;60.39
37304;BME280;23188;51.188;16.374;2022-09-24T16:17:16;99923.20;;;19.00;60.63
37304;BME280;23188;51.188;16.374;2022-09-24T16:21:17;99920.37;;;18.82;61.17
37304;BME280;23188;51.188;16.374;2022-09-24T16:25:19;99918.09;;;18.64;63.17
37304;BME280;23188;51.188;16.374;2022-09-24T16:29:20;99912.41;;;18.48;64.03
37304;BME280;23188;51.188;16.374;2022-09-24T16:33:21;99919.70;;;18.28;64.26
37304;BME280;23188;51.188;16.374;2022-09-24T16:37:24;99925.95;;;18.09;64.74
37304;BME280;23188;51.188;16.374;2022-09-24T16:41:25;99933.83;;;17.92;66.23
37304;BME280;23188;51.188;16.374;2022-09-24T16:45:27;99934.34;;;17.72;67.74
37304;BME280;23188;51.188;16.374;2022-09-24T16:49:28;99928.23;;;17.55;68.09
37304;BME280;23188;51.188;16.374;2022-09-24T16:53:29;99920.82;;;17.38;69.26
37304;BME280;23188;51.188;16.374;2022-09-24T16:57:34;99925.29;;;17.22;69.77
37304;BME280;23188;51.188;16.374;2022-09-24T17:01:37;99926.41;;;17.05;70.82
37304;BME280;23188;51.188;16.374;2022-09-24T17:05:39;99922.11;;;16.91;71.76
37304;BME280;23188;51.188;16.374;2022-09-24T17:09:40;99926.21;;;16.75;72.16
37304;BME280;23188;51.188;16.374;2022-09-24T17:14:00;99925.24;;;16.63;72.37
37304;BME280;23188;51.188;16.374;2022-09-24T17:18:02;99934.36;;;16.54;72.86
37304;BME280;23188;51.188;16.374;2022-09-24T17:22:03;99941.08;;;16.46;73.29
37304;BME280;23188;51.188;16.374;2022-09-24T17:26:10;99945.14;;;16.37;74.02
37304;BME280;23188;51.188;16.374;2022-09-24T17:30:13;99944.67;;;16.25;74.27
37304;BME280;23188;51.188;16.374;2022-09-24T17:34:15;99947.87;;;16.17;74.32
37304;BME280;23188;51.188;16.374;2022-09-24T17:38:16;99949.41;;;16.07;75.16
37304;BME280;23188;51.188;16.374;2022-09-24T17:42:18;99952.10;;;16.03;75.42
37304;BME280;23188;51.188;16.374;2022-09-24T17:46:21;99953.95;;;15.94;76.13
37304;BME280;23188;51.188;16.374;2022-09-24T17:50:22;99956.26;;;15.84;75.99
37304;BME280;23188;51.188;16.374;2022-09-24T17:54:24;99956.61;;;15.77;76.54
37304;BME280;23188;51.188;16.374;2022-09-24T17:58:26;99963.31;;;15.73;76.98
37304;BME280;23188;51.188;16.374;2022-09-24T18:02:29;99969.48;;;15.61;79.82
37304;BME280;23188;51.188;16.374;2022-09-24T18:06:31;99968.61;;;15.32;81.70
37304;BME280;23188;51.188;16.374;2022-09-24T18:10:35;99965.55;;;15.06;83.43
37304;BME280;23188;51.188;16.374;2022-09-24T18:14:36;99968.89;;;14.99;83.78
37304;BME280;23188;51.188;16.374;2022-09-24T18:18:40;99972.77;;;15.05;83.04
37304;BME280;23188;51.188;16.374;2022-09-24T18:22:42;99975.58;;;14.99;84.91
37304;BME280;23188;51.188;16.374;2022-09-24T18:26:43;99976.18;;;14.81;84.51
37304;BME280;23188;51.188;16.374;2022-09-24T18:30:44;99975.88;;;14.62;84.18
37304;BME280;23188;51.188;16.374;2022-09-24T18:34:46;99974.78;;;14.42;84.42
37304;BME280;23188;51.188;16.374;2022-09-24T18:38:47;99970.53;;;14.31;86.37
37304;BME280;23188;51.188;16.374;2022-09-24T18:42:49;99967.86;;;14.31;87.27
37304;BME280;23188;51.188;16.374;2022-09-24T18:46:50;99971.50;;;14.22;87.71
37304;BME280;23188;51.188;16.374;2022-09-24T18:50:52;99972.16;;;14.20;88.34
37304;BME280;23188;51.188;16.374;2022-09-24T18:54:53;99968.80;;;14.18;88.94
37304;BME280;23188;51.188;16.374;2022-09-24T18:58:56;99966.93;;;14.14;88.16
37304;BME280;23188;51.188;16.374;2022-09-24T19:02:58;99966.93;;;14.14;88.14
37304;BME280;23188;51.188;16.374;2022-09-24T19:06:59;99963.94;;;14.17;87.21
37304;BME280;23188;51.188;16.374;2022-09-24T19:11:04;99971.16;;;14.21;86.60
37304;BME280;23188;51.188;16.374;2022-09-24T19:15:08;99970.84;;;14.24;85.99
37304;BME280;23188;51.188;16.374;2022-09-24T19:19:10;99983.55;;;14.26;85.32
37304;BME280;23188;51.188;16.374;2022-09-24T19:23:12;99983.88;;;14.23;85.69
37304;BME280;23188;51.188;16.374;2022-09-24T19:27:13;99986.09;;;14.05;85.17
37304;BME280;23188;51.188;16.374;2022-09-24T19:31:26;99989.66;;;13.92;85.65
37304;BME280;23188;51.188;16.374;2022-09-24T19:35:22;99993.24;;;13.78;85.78
37304;BME280;23188;51.188;16.374;2022-09-24T19:39:23;99986.75;;;13.63;87.19
37304;BME280;23188;51.188;16.374;2022-09-24T19:43:25;99986.97;;;13.51;87.34
37304;BME280;23188;51.188;16.374;2022-09-24T19:47:27;99983.70;;;13.58;87.60
37304;BME280;23188;51.188;16.374;2022-09-24T19:51:30;99985.59;;;13.47;87.64
37304;BME280;23188;51.188;16.374;2022-09-24T19:55:33;99986.42;;;13.34;89.31
37304;BME280;23188;51.188;16.374;2022-09-24T19:59:35;99987.71;;;13.11;89.72
37304;BME280;23188;51.188;16.374;2022-09-24T20:03:38;99983.88;;;13.14;90.16
37304;BME280;23188;51.188;16.374;2022-09-24T20:07:39;99984.33;;;13.23;89.76
37304;BME280;23188;51.188;16.374;2022-09-24T20:11:41;99984.06;;;13.31;90.14
37304;BME280;23188;51.188;16.374;2022-09-24T20:15:43;99984.44;;;13.36;90.30
37304;BME280;23188;51.188;16.374;2022-09-24T20:19:44;99979.51;;;13.41;89.90
37304;BME280;23188;51.188;16.374;2022-09-24T20:23:47;99975.33;;;13.42;89.29
37304;BME280;23188;51.188;16.374;2022-09-24T20:27:48;99971.90;;;13.46;88.66
37304;BME280;23188;51.188;16.374;2022-09-24T20:31:55;99976.39;;;13.46;88.55
37304;BME280;23188;51.188;16.374;2022-09-24T20:36:01;99973.03;;;13.43;88.20
37304;BME280;23188;51.188;16.374;2022-09-24T20:40:05;99967.59;;;13.35;88.36
37304;BME280;23188;51.188;16.374;2022-09-24T20:44:07;99970.64;;;13.22;88.62
37304;BME280;23188;51.188;16.374;2022-09-24T20:48:09;99975.19;;;13.12;88.72
37304;BME280;23188;51.188;16.374;2022-09-24T20:52:10;99967.44;;;13.05;89.24
37304;BME280;23188;51.188;16.374;2022-09-24T20:56:12;99965.55;;;13.01;89.74
37304;BME280;23188;51.188;16.374;2022-09-24T21:00:14;99971.59;;;12.89;90.90
37304;BME280;23188;51.188;16.374;2022-09-24T21:04:16;99964.53;;;12.84;91.13
37304;BME280;23188;51.188;16.374;2022-09-24T21:08:19;99965.19;;;12.82;91.08
37304;BME280;23188;51.188;16.374;2022-09-24T21:12:20;99969.27;;;12.76;91.52
37304;BME280;23188;51.188;16.374;2022-09-24T21:16:25;99970.14;;;12.67;92.39
37304;BME280;23188;51.188;16.374;2022-09-24T21:20:28;99972.28;;;12.49;91.57
37304;BME280;23188;51.188;16.374;2022-09-24T21:24:29;99966.59;;;12.48;91.73
37304;BME280;23188;51.188;16.374;2022-09-24T21:28:31;99964.75;;;12.49;91.54
37304;BME280;23188;51.188;16.374;2022-09-24T21:32:32;99964.16;;;12.55;91.51
37304;BME280;23188;51.188;16.374;2022-09-24T21:36:38;99970.19;;;12.57;91.20
37304;BME280;23188;51.188;16.374;2022-09-24T21:40:42;99968.80;;;12.53;90.00
37304;BME280;23188;51.188;16.374;2022-09-24T21:44:43;99969.48;;;12.41;91.39
37304;BME280;23188;51.188;16.374;2022-09-24T21:48:47;99971.33;;;12.40;92.21
37304;BME280;23188;51.188;16.374;2022-09-24T21:52:48;99972.79;;;12.15;94.21
37304;BME280;23188;51.188;16.374;2022-09-24T21:56:50;99970.97;;;12.06;93.19
37304;BME280;23188;51.188;16.374;2022-09-24T22:00:54;99974.09;;;12.01;94.82
37304;BME280;23188;51.188;16.374;2022-09-24T22:04:56;99975.88;;;11.91;93.73
37304;BME280;23188;51.188;16.374;2022-09-24T22:09:03;99974.34;;;11.78;93.74
37304;BME280;23188;51.188;16.374;2022-09-24T22:13:07;99979.89;;;11.71;93.87
37304;BME280;23188;51.188;16.374;2022-09-24T22:17:09;99980.24;;;11.72;93.79
37304;BME280;23188;51.188;16.374;2022-09-24T22:21:13;99975.19;;;11.79;94.66
37304;BME280;23188;51.188;16.374;2022-09-24T22:25:14;99975.47;;;11.85;95.15
37304;BME280;23188;51.188;16.374;2022-09-24T22:29:16;99981.09;;;11.82;95.40
37304;BME280;23188;51.188;16.374;2022-09-24T22:33:17;99970.98;;;11.76;95.28
37304;BME280;23188;51.188;16.374;2022-09-24T22:37:37;99972.06;;;11.60;96.32
37304;BME280;23188;51.188;16.374;2022-09-24T22:41:38;99963.84;;;11.47;96.52
37304;BME280;23188;51.188;16.374;2022-09-24T22:45:42;99970.97;;;11.37;98.19
37304;BME280;23188;51.188;16.374;2022-09-24T22:49:43;99963.17;;;11.10;100.00